createdAt,value
2022-12-01T00:00:01.610Z,81.06446168000458
2022-12-01T00:15:02.217Z,80.6126553340211
2022-12-01T00:30:01.906Z,80.53746081145992
2022-12-01T00:45:02.567Z,80.43433944183109
2022-12-01T01:00:02.203Z,80.70586660610881
2022-12-01T01:15:01.875Z,79.7754195217522
2022-12-01T01:30:01.567Z,80.73142129001322
2022-12-01T01:45:02.180Z,80.49927528209017
2022-12-01T02:00:01.779Z,80.81268846556738
2022-12-01T02:15:02.435Z,80.21700169176168
2022-12-01T02:30:02.053Z,79.49150027003503
2022-12-01T02:45:01.720Z,79.80961959091357
2022-12-01T03:00:02.328Z,80.54877102355717
2022-12-01T03:15:01.997Z,80.22127532411768
2022-12-01T03:30:01.648Z,80.36437557804723
2022-12-01T03:45:02.299Z,79.70005762770082
2022-12-01T04:00:01.929Z,80.11495429709547
2022-12-01T04:15:02.574Z,80.13994564244531
2022-12-01T04:30:02.281Z,80.62372203835089
2022-12-01T04:45:01.960Z,81.01685783405932
2022-12-01T05:00:01.593Z,80.44943608536457
2022-12-01T05:15:02.245Z,80.54446997012299
2022-12-01T05:30:02.439Z,79.88839191104995
2022-12-01T05:45:02.055Z,80.02426029882643
2022-12-01T06:00:01.725Z,80.84709523397518
2022-12-01T06:15:02.365Z,79.98929708419057
2022-12-01T06:30:02.042Z,80.1343064944582
2022-12-01T06:45:02.002Z,80.03362268242485
2022-12-01T07:00:01.765Z,80.08766104250485
2022-12-01T07:15:01.673Z,79.80418486146297
2022-12-01T07:30:02.381Z,80.1258479972163
2022-12-01T07:45:02.078Z,80.03832808203718
2022-12-01T08:00:01.738Z,79.8000073380335
2022-12-01T08:15:02.373Z,79.67276788755707
2022-12-01T08:30:02.117Z,78.49083906193326
2022-12-01T08:45:01.869Z,78.66299518986939
2022-12-01T09:00:01.617Z,79.28616122296437
2022-12-01T09:15:02.293Z,79.01958584595853
2022-12-01T09:30:02.021Z,78.84977810931429
2022-12-01T09:45:01.668Z,78.98487962137304
2022-12-01T10:00:02.329Z,78.56764787610025
2022-12-01T10:15:02.007Z,78.38268717876157
2022-12-01T10:30:01.687Z,78.16012081582974
2022-12-01T10:45:02.382Z,78.20103737691717
2022-12-01T11:00:02.124Z,77.59886704849607
2022-12-01T11:15:01.796Z,77.79320274345892
2022-12-01T11:30:02.484Z,76.89843094695485
2022-12-01T11:45:02.130Z,78.44501212094104
2022-12-01T12:00:01.840Z,78.64055474647088
2022-12-01T12:15:02.477Z,76.68980055862241
2022-12-01T12:30:02.143Z,77.743867249592
2022-12-01T12:45:01.796Z,78.00547730088648
2022-12-01T13:00:02.425Z,76.03902597282202
2022-12-01T13:15:02.081Z,77.19622145615249
2022-12-01T13:30:01.786Z,76.09789127572189
2022-12-01T13:45:02.443Z,76.79266825129667
2022-12-01T14:00:02.085Z,76.8698974529186
2022-12-01T14:15:01.713Z,77.22040914647098
2022-12-01T14:30:02.450Z,76.00441555440065
2022-12-01T14:45:02.235Z,74.84246773489996
2022-12-01T15:00:01.920Z,76.12072086139344
2022-12-01T15:15:01.724Z,76.41893195440468
2022-12-01T15:30:02.372Z,75.41352230499245
2022-12-01T15:45:02.383Z,75.71056224384675
2022-12-01T16:00:02.400Z,74.33000949338837
2022-12-01T16:15:02.075Z,74.17395824536828
2022-12-01T16:30:01.854Z,75.57109001880183
2022-12-01T16:45:01.699Z,74.93163814921101
2022-12-01T17:00:02.391Z,74.78188595887725
2022-12-01T17:15:02.109Z,75.20110528952814
2022-12-01T17:30:01.937Z,74.93275363480157
2022-12-01T17:45:01.684Z,74.1830084437312
2022-12-01T18:00:02.380Z,74.68350191055397
2022-12-01T18:15:01.992Z,75.01235236365652
2022-12-01T18:30:01.652Z,74.79964460727719
2022-12-01T18:45:02.268Z,74.03072691243455
2022-12-01T19:00:01.912Z,74.76508496914319
2022-12-01T19:15:02.568Z,74.17419135435117
2022-12-01T19:30:02.271Z,75.39590502149022
2022-12-01T19:45:02.039Z,75.40533213332621
2022-12-01T20:00:01.755Z,75.00521551599932
2022-12-01T20:15:02.396Z,75.14271547552342
2022-12-01T20:30:02.161Z,75.29758085986005
2022-12-01T20:45:01.828Z,75.14732587083063
2022-12-01T21:00:02.470Z,75.6448960907762
2022-12-01T21:15:02.071Z,75.59161847016725
2022-12-01T21:30:01.765Z,75.47182529945552
2022-12-01T21:45:02.391Z,75.50413813682916
2022-12-01T22:00:02.021Z,75.636191694585
2022-12-01T22:15:01.697Z,75.67849045689357
2022-12-01T22:30:02.411Z,75.71900836425608
2022-12-01T22:45:02.048Z,75.82707938794698
2022-12-01T23:00:01.811Z,75.64921785534344
2022-12-01T23:15:02.427Z,75.80156418741086
2022-12-01T23:30:02.171Z,75.82639789860778
2022-12-01T23:45:01.785Z,75.85278351191293
